sensor_id;sensor_type;location;lat;lon;timestamp;temperature;humidity
28010;DHT22;15334;49.494;8.410;2023-09-08T00:01:40;19.10;99.90
28010;DHT22;15334;49.494;8.410;2023-09-08T00:04:08;19.00;99.90
28010;DHT22;15334;49.494;8.410;2023-09-08T00:06:36;18.80;99.90
28010;DHT22;15334;49.494;8.410;2023-09-08T00:09:04;18.80;99.90
28010;DHT22;15334;49.494;8.410;2023-09-08T00:11:32;18.70;99.90
28010;DHT22;15334;49.494;8.410;2023-09-08T00:14:00;18.70;99.90
28010;DHT22;15334;49.494;8.410;2023-09-08T00:16:29;18.70;99.90
28010;DHT22;15334;49.494;8.410;2023-09-08T00:18:58;18.50;99.90
28010;DHT22;15334;49.494;8.410;2023-09-08T00:21:26;18.40;99.90
28010;DHT22;15334;49.494;8.410;2023-09-08T00:23:54;18.30;99.90
28010;DHT22;15334;49.494;8.410;2023-09-08T00:26:23;18.30;99.90
28010;DHT22;15334;49.494;8.410;2023-09-08T00:28:51;18.20;99.90
28010;DHT22;15334;49.494;8.410;2023-09-08T00:31:19;18.10;99.90
28010;DHT22;15334;49.494;8.410;2023-09-08T00:33:48;18.10;99.90
28010;DHT22;15334;49.494;8.410;2023-09-08T00:36:16;18.10;99.90
28010;DHT22;15334;49.494;8.410;2023-09-08T00:38:45;18.10;99.90
28010;DHT22;15334;49.494;8.410;2023-09-08T00:41:13;18.10;99.90
28010;DHT22;15334;49.494;8.410;2023-09-08T00:43:41;18.00;99.90
28010;DHT22;15334;49.494;8.410;2023-09-08T00:46:09;18.00;99.90
28010;DHT22;15334;49.494;8.410;2023-09-08T00:48:37;18.00;99.90
28010;DHT22;15334;49.494;8.410;2023-09-08T00:51:07;18.00;99.90
28010;DHT22;15334;49.494;8.410;2023-09-08T00:53:36;17.90;99.90
28010;DHT22;15334;49.494;8.410;2023-09-08T00:56:05;17.90;99.90
28010;DHT22;15334;49.494;8.410;2023-09-08T00:58:33;17.80;99.90
28010;DHT22;15334;49.494;8.410;2023-09-08T01:01:01;17.80;99.90
28010;DHT22;15334;49.494;8.410;2023-09-08T01:03:29;17.80;99.90
28010;DHT22;15334;49.494;8.410;2023-09-08T01:05:57;17.70;99.90
28010;DHT22;15334;49.494;8.410;2023-09-08T01:08:27;17.70;99.90
28010;DHT22;15334;49.494;8.410;2023-09-08T01:10:56;17.60;99.90
28010;DHT22;15334;49.494;8.410;2023-09-08T01:13:24;17.60;99.90
28010;DHT22;15334;49.494;8.410;2023-09-08T01:15:52;17.60;99.90
28010;DHT22;15334;49.494;8.410;2023-09-08T01:18:20;17.40;99.90
28010;DHT22;15334;49.494;8.410;2023-09-08T01:21:13;17.40;99.90
28010;DHT22;15334;49.494;8.410;2023-09-08T01:23:56;17.30;99.90
28010;DHT22;15334;49.494;8.410;2023-09-08T01:26:32;17.40;99.90
28010;DHT22;15334;49.494;8.410;2023-09-08T01:29:03;17.40;99.90
28010;DHT22;15334;49.494;8.410;2023-09-08T01:31:33;17.40;99.90
28010;DHT22;15334;49.494;8.410;2023-09-08T01:34:01;17.40;99.90
28010;DHT22;15334;49.494;8.410;2023-09-08T01:36:33;17.40;99.90
28010;DHT22;15334;49.494;8.410;2023-09-08T01:39:02;17.40;99.90
28010;DHT22;15334;49.494;8.410;2023-09-08T01:41:31;17.40;99.90
28010;DHT22;15334;49.494;8.410;2023-09-08T01:44:17;17.30;99.90
28010;DHT22;15334;49.494;8.410;2023-09-08T01:46:45;17.30;99.90
28010;DHT22;15334;49.494;8.410;2023-09-08T01:49:13;17.30;99.90
28010;DHT22;15334;49.494;8.410;2023-09-08T01:51:41;17.20;99.90
28010;DHT22;15334;49.494;8.410;2023-09-08T01:54:09;17.20;99.90
28010;DHT22;15334;49.494;8.410;2023-09-08T01:56:38;17.20;99.90
28010;DHT22;15334;49.494;8.410;2023-09-08T01:59:06;17.20;99.90
28010;DHT22;15334;49.494;8.410;2023-09-08T02:01:34;17.10;99.90
28010;DHT22;15334;49.494;8.410;2023-09-08T02:04:03;17.20;99.90
28010;DHT22;15334;49.494;8.410;2023-09-08T02:06:32;17.10;99.90
28010;DHT22;15334;49.494;8.410;2023-09-08T02:08:59;17.10;99.90
28010;DHT22;15334;49.494;8.410;2023-09-08T02:11:27;17.10;99.90
28010;DHT22;15334;49.494;8.410;2023-09-08T02:13:57;17.00;99.90
28010;DHT22;15334;49.494;8.410;2023-09-08T02:16:24;17.00;99.90
28010;DHT22;15334;49.494;8.410;2023-09-08T02:18:53;16.90;99.90
28010;DHT22;15334;49.494;8.410;2023-09-08T02:21:21;16.90;99.90
28010;DHT22;15334;49.494;8.410;2023-09-08T02:23:49;16.90;99.90
28010;DHT22;15334;49.494;8.410;2023-09-08T02:26:17;16.80;99.90
28010;DHT22;15334;49.494;8.410;2023-09-08T02:28:45;16.80;99.90
28010;DHT22;15334;49.494;8.410;2023-09-08T02:31:14;16.70;99.90
28010;DHT22;15334;49.494;8.410;2023-09-08T02:33:42;16.70;99.90
28010;DHT22;15334;49.494;8.410;2023-09-08T02:36:10;16.60;99.90
28010;DHT22;15334;49.494;8.410;2023-09-08T02:38:38;16.50;99.90
28010;DHT22;15334;49.494;8.410;2023-09-08T02:41:06;16.40;99.90
28010;DHT22;15334;49.494;8.410;2023-09-08T02:43:34;16.50;99.90
28010;DHT22;15334;49.494;8.410;2023-09-08T02:46:02;16.40;99.90
28010;DHT22;15334;49.494;8.410;2023-09-08T02:48:31;16.50;99.90
28010;DHT22;15334;49.494;8.410;2023-09-08T02:50:59;16.40;99.90
28010;DHT22;15334;49.494;8.410;2023-09-08T02:53:27;16.40;99.90
28010;DHT22;15334;49.494;8.410;2023-09-08T02:55:55;16.30;99.90
28010;DHT22;15334;49.494;8.410;2023-09-08T02:58:23;16.30;99.90
28010;DHT22;15334;49.494;8.410;2023-09-08T03:00:51;16.40;99.90
28010;DHT22;15334;49.494;8.410;2023-09-08T03:03:19;16.50;99.90
28010;DHT22;15334;49.494;8.410;2023-09-08T03:05:53;16.50;99.90
28010;DHT22;15334;49.494;8.410;2023-09-08T03:08:22;16.50;99.90
28010;DHT22;15334;49.494;8.410;2023-09-08T03:10:55;16.60;99.90
28010;DHT22;15334;49.494;8.410;2023-09-08T03:13:23;16.50;99.90
28010;DHT22;15334;49.494;8.410;2023-09-08T03:15:52;16.50;99.90
28010;DHT22;15334;49.494;8.410;2023-09-08T03:18:20;16.60;99.90
28010;DHT22;15334;49.494;8.410;2023-09-08T03:20:50;16.50;99.90
28010;DHT22;15334;49.494;8.410;2023-09-08T03:23:18;16.50;99.90
28010;DHT22;15334;49.494;8.410;2023-09-08T03:25:48;16.60;99.90
28010;DHT22;15334;49.494;8.410;2023-09-08T03:28:16;16.80;99.90
28010;DHT22;15334;49.494;8.410;2023-09-08T03:30:44;16.80;99.90
28010;DHT22;15334;49.494;8.410;2023-09-08T03:33:12;16.80;99.90
28010;DHT22;15334;49.494;8.410;2023-09-08T03:35:40;16.90;99.90
28010;DHT22;15334;49.494;8.410;2023-09-08T03:38:09;16.90;99.90
28010;DHT22;15334;49.494;8.410;2023-09-08T03:40:37;16.80;99.90
28010;DHT22;15334;49.494;8.410;2023-09-08T03:43:05;16.80;99.90
28010;DHT22;15334;49.494;8.410;2023-09-08T03:45:33;16.80;99.90
28010;DHT22;15334;49.494;8.410;2023-09-08T03:48:01;16.70;99.90
28010;DHT22;15334;49.494;8.410;2023-09-08T03:50:29;16.80;99.90
28010;DHT22;15334;49.494;8.410;2023-09-08T03:52:57;16.70;99.90
28010;DHT22;15334;49.494;8.410;2023-09-08T03:55:27;16.70;99.90
28010;DHT22;15334;49.494;8.410;2023-09-08T03:57:55;16.80;99.90
28010;DHT22;15334;49.494;8.410;2023-09-08T04:00:22;16.80;99.90
28010;DHT22;15334;49.494;8.410;2023-09-08T04:02:51;16.90;99.90
28010;DHT22;15334;49.494;8.410;2023-09-08T04:05:19;16.90;99.90
28010;DHT22;15334;49.494;8.410;2023-09-08T04:07:47;16.90;99.90
28010;DHT22;15334;49.494;8.410;2023-09-08T04:10:15;16.90;99.90
28010;DHT22;15334;49.494;8.410;2023-09-08T04:12:44;16.90;99.90
28010;DHT22;15334;49.494;8.410;2023-09-08T04:15:30;16.80;99.90
28010;DHT22;15334;49.494;8.410;2023-09-08T04:17:58;16.80;99.90
28010;DHT22;15334;49.494;8.410;2023-09-08T04:20:26;16.70;99.90
28010;DHT22;15334;49.494;8.410;2023-09-08T04:22:54;16.60;99.90
28010;DHT22;15334;49.494;8.410;2023-09-08T04:25:22;16.60;99.90
28010;DHT22;15334;49.494;8.410;2023-09-08T04:27:51;16.60;99.90
28010;DHT22;15334;49.494;8.410;2023-09-08T04:30:19;16.60;99.90
28010;DHT22;15334;49.494;8.410;2023-09-08T04:32:48;16.60;99.90
28010;DHT22;15334;49.494;8.410;2023-09-08T04:35:16;16.70;99.90
28010;DHT22;15334;49.494;8.410;2023-09-08T04:37:44;16.80;99.90
28010;DHT22;15334;49.494;8.410;2023-09-08T04:40:12;16.80;99.90
28010;DHT22;15334;49.494;8.410;2023-09-08T04:42:41;16.80;99.90
28010;DHT22;15334;49.494;8.410;2023-09-08T04:45:11;16.90;99.90
28010;DHT22;15334;49.494;8.410;2023-09-08T04:47:40;16.90;99.90
28010;DHT22;15334;49.494;8.410;2023-09-08T04:50:09;17.00;99.90
28010;DHT22;15334;49.494;8.410;2023-09-08T04:52:37;17.10;99.90
28010;DHT22;15334;49.494;8.410;2023-09-08T04:55:06;17.10;99.90
28010;DHT22;15334;49.494;8.410;2023-09-08T04:57:34;17.20;99.90
28010;DHT22;15334;49.494;8.410;2023-09-08T05:00:02;17.20;99.90
28010;DHT22;15334;49.494;8.410;2023-09-08T05:02:32;17.40;99.90
28010;DHT22;15334;49.494;8.410;2023-09-08T05:05:03;17.40;99.90
28010;DHT22;15334;49.494;8.410;2023-09-08T05:07:32;17.50;99.90
28010;DHT22;15334;49.494;8.410;2023-09-08T05:10:00;17.60;99.90
28010;DHT22;15334;49.494;8.410;2023-09-08T05:12:28;17.50;99.90
28010;DHT22;15334;49.494;8.410;2023-09-08T05:14:55;17.50;99.90
28010;DHT22;15334;49.494;8.410;2023-09-08T05:17:46;17.50;99.90
28010;DHT22;15334;49.494;8.410;2023-09-08T05:20:14;17.50;99.90
28010;DHT22;15334;49.494;8.410;2023-09-08T05:22:43;17.50;99.90
28010;DHT22;15334;49.494;8.410;2023-09-08T05:25:11;17.50;99.90
28010;DHT22;15334;49.494;8.410;2023-09-08T05:27:39;17.50;99.90
28010;DHT22;15334;49.494;8.410;2023-09-08T05:30:08;17.50;99.90
28010;DHT22;15334;49.494;8.410;2023-09-08T05:32:36;17.50;99.90
28010;DHT22;15334;49.494;8.410;2023-09-08T05:35:06;17.50;99.90
28010;DHT22;15334;49.494;8.410;2023-09-08T05:37:34;17.50;99.90
28010;DHT22;15334;49.494;8.410;2023-09-08T05:40:02;17.50;99.90
28010;DHT22;15334;49.494;8.410;2023-09-08T05:42:31;17.50;99.90
28010;DHT22;15334;49.494;8.410;2023-09-08T05:44:59;17.40;99.90
28010;DHT22;15334;49.494;8.410;2023-09-08T05:47:27;17.30;99.90
28010;DHT22;15334;49.494;8.410;2023-09-08T05:49:55;17.20;99.90
28010;DHT22;15334;49.494;8.410;2023-09-08T05:52:25;17.10;99.90
28010;DHT22;15334;49.494;8.410;2023-09-08T05:54:54;17.10;99.90
28010;DHT22;15334;49.494;8.410;2023-09-08T05:57:22;17.10;99.90
28010;DHT22;15334;49.494;8.410;2023-09-08T05:59:50;17.10;99.90
28010;DHT22;15334;49.494;8.410;2023-09-08T06:02:18;17.10;99.90
28010;DHT22;15334;49.494;8.410;2023-09-08T06:04:46;17.20;99.90
28010;DHT22;15334;49.494;8.410;2023-09-08T06:07:14;17.20;99.90
28010;DHT22;15334;49.494;8.410;2023-09-08T06:09:44;17.30;99.90
28010;DHT22;15334;49.494;8.410;2023-09-08T06:12:12;17.30;99.90
28010;DHT22;15334;49.494;8.410;2023-09-08T06:14:40;17.50;99.90
28010;DHT22;15334;49.494;8.410;2023-09-08T06:17:10;17.60;99.90
28010;DHT22;15334;49.494;8.410;2023-09-08T06:19:38;17.70;99.90
28010;DHT22;15334;49.494;8.410;2023-09-08T06:22:05;17.80;99.90
28010;DHT22;15334;49.494;8.410;2023-09-08T06:24:33;17.80;99.90
28010;DHT22;15334;49.494;8.410;2023-09-08T06:27:03;17.90;99.90
28010;DHT22;15334;49.494;8.410;2023-09-08T06:29:31;18.00;99.90
28010;DHT22;15334;49.494;8.410;2023-09-08T06:31:59;18.10;99.90
28010;DHT22;15334;49.494;8.410;2023-09-08T06:34:27;18.10;99.90
28010;DHT22;15334;49.494;8.410;2023-09-08T06:36:55;18.20;99.90
28010;DHT22;15334;49.494;8.410;2023-09-08T06:39:25;18.20;99.90
28010;DHT22;15334;49.494;8.410;2023-09-08T06:41:53;18.20;99.90
28010;DHT22;15334;49.494;8.410;2023-09-08T06:44:23;18.20;99.90
28010;DHT22;15334;49.494;8.410;2023-09-08T06:46:51;18.20;99.90
28010;DHT22;15334;49.494;8.410;2023-09-08T06:49:19;18.20;99.90
28010;DHT22;15334;49.494;8.410;2023-09-08T06:51:48;18.20;99.90
28010;DHT22;15334;49.494;8.410;2023-09-08T06:54:16;18.30;99.90
28010;DHT22;15334;49.494;8.410;2023-09-08T06:56:44;18.40;99.90
28010;DHT22;15334;49.494;8.410;2023-09-08T06:59:12;18.40;99.90
28010;DHT22;15334;49.494;8.410;2023-09-08T07:01:41;18.50;99.90
28010;DHT22;15334;49.494;8.410;2023-09-08T07:04:09;18.60;99.90
28010;DHT22;15334;49.494;8.410;2023-09-08T07:06:38;18.70;99.90
28010;DHT22;15334;49.494;8.410;2023-09-08T07:09:08;18.80;99.90
28010;DHT22;15334;49.494;8.410;2023-09-08T07:11:36;18.90;99.90
28010;DHT22;15334;49.494;8.410;2023-09-08T07:14:05;19.00;99.90
28010;DHT22;15334;49.494;8.410;2023-09-08T07:16:33;19.00;99.90
28010;DHT22;15334;49.494;8.410;2023-09-08T07:19:02;19.10;99.90
28010;DHT22;15334;49.494;8.410;2023-09-08T07:21:30;19.10;99.90
28010;DHT22;15334;49.494;8.410;2023-09-08T07:23:58;19.30;99.90
28010;DHT22;15334;49.494;8.410;2023-09-08T07:26:27;19.40;99.90
28010;DHT22;15334;49.494;8.410;2023-09-08T07:28:55;19.40;99.90
28010;DHT22;15334;49.494;8.410;2023-09-08T07:31:23;19.50;99.90
28010;DHT22;15334;49.494;8.410;2023-09-08T07:33:51;19.60;99.90
28010;DHT22;15334;49.494;8.410;2023-09-08T07:36:20;19.70;99.90
28010;DHT22;15334;49.494;8.410;2023-09-08T07:38:48;19.80;99.90
28010;DHT22;15334;49.494;8.410;2023-09-08T07:41:16;19.90;99.90
28010;DHT22;15334;49.494;8.410;2023-09-08T07:43:44;19.90;99.90
28010;DHT22;15334;49.494;8.410;2023-09-08T07:46:12;20.00;99.90
28010;DHT22;15334;49.494;8.410;2023-09-08T07:48:41;20.10;99.90
28010;DHT22;15334;49.494;8.410;2023-09-08T07:51:09;20.20;99.90
28010;DHT22;15334;49.494;8.410;2023-09-08T07:53:39;20.30;99.90
28010;DHT22;15334;49.494;8.410;2023-09-08T07:56:07;20.30;99.90
28010;DHT22;15334;49.494;8.410;2023-09-08T07:58:36;20.40;99.90
28010;DHT22;15334;49.494;8.410;2023-09-08T08:01:05;20.50;99.90
28010;DHT22;15334;49.494;8.410;2023-09-08T08:03:33;20.60;99.90
28010;DHT22;15334;49.494;8.410;2023-09-08T08:06:02;20.70;99.90
28010;DHT22;15334;49.494;8.410;2023-09-08T08:08:30;20.80;99.90
28010;DHT22;15334;49.494;8.410;2023-09-08T08:11:00;20.80;99.90
28010;DHT22;15334;49.494;8.410;2023-09-08T08:13:28;20.90;99.90
28010;DHT22;15334;49.494;8.410;2023-09-08T08:15:56;20.90;99.90
28010;DHT22;15334;49.494;8.410;2023-09-08T08:18:24;21.00;99.90
28010;DHT22;15334;49.494;8.410;2023-09-08T08:20:52;21.20;99.90
28010;DHT22;15334;49.494;8.410;2023-09-08T08:23:20;21.30;99.90
28010;DHT22;15334;49.494;8.410;2023-09-08T08:25:48;21.30;99.90
28010;DHT22;15334;49.494;8.410;2023-09-08T08:28:18;21.40;99.90
28010;DHT22;15334;49.494;8.410;2023-09-08T08:30:46;21.50;99.90
28010;DHT22;15334;49.494;8.410;2023-09-08T08:33:15;21.70;99.90
28010;DHT22;15334;49.494;8.410;2023-09-08T08:35:48;21.80;99.90
28010;DHT22;15334;49.494;8.410;2023-09-08T08:38:16;21.90;99.90
28010;DHT22;15334;49.494;8.410;2023-09-08T08:40:44;22.00;99.90
28010;DHT22;15334;49.494;8.410;2023-09-08T08:43:13;22.10;99.90
28010;DHT22;15334;49.494;8.410;2023-09-08T08:45:43;22.20;99.90
28010;DHT22;15334;49.494;8.410;2023-09-08T08:48:13;22.30;99.90
28010;DHT22;15334;49.494;8.410;2023-09-08T08:50:43;22.40;99.90
28010;DHT22;15334;49.494;8.410;2023-09-08T08:53:12;22.40;99.90
28010;DHT22;15334;49.494;8.410;2023-09-08T08:55:40;22.60;99.90
28010;DHT22;15334;49.494;8.410;2023-09-08T08:58:09;22.70;99.90
28010;DHT22;15334;49.494;8.410;2023-09-08T09:00:37;22.80;99.90
28010;DHT22;15334;49.494;8.410;2023-09-08T09:03:07;22.80;99.90
28010;DHT22;15334;49.494;8.410;2023-09-08T09:05:42;22.90;99.90
28010;DHT22;15334;49.494;8.410;2023-09-08T09:08:15;23.00;99.90
28010;DHT22;15334;49.494;8.410;2023-09-08T09:10:43;23.00;99.90
28010;DHT22;15334;49.494;8.410;2023-09-08T09:13:11;23.20;99.90
28010;DHT22;15334;49.494;8.410;2023-09-08T09:15:39;23.30;99.90
28010;DHT22;15334;49.494;8.410;2023-09-08T09:18:09;23.40;99.90
28010;DHT22;15334;49.494;8.410;2023-09-08T09:20:37;23.40;99.90
28010;DHT22;15334;49.494;8.410;2023-09-08T09:23:07;23.40;99.90
28010;DHT22;15334;49.494;8.410;2023-09-08T09:25:35;23.50;99.90
28010;DHT22;15334;49.494;8.410;2023-09-08T09:28:05;23.50;99.90
28010;DHT22;15334;49.494;8.410;2023-09-08T09:30:54;23.60;99.90
28010;DHT22;15334;49.494;8.410;2023-09-08T09:33:23;23.70;99.90
28010;DHT22;15334;49.494;8.410;2023-09-08T09:35:52;23.80;99.90
28010;DHT22;15334;49.494;8.410;2023-09-08T09:38:27;24.00;99.90
28010;DHT22;15334;49.494;8.410;2023-09-08T09:40:55;24.00;99.90
28010;DHT22;15334;49.494;8.410;2023-09-08T09:43:23;24.10;99.90
28010;DHT22;15334;49.494;8.410;2023-09-08T09:45:51;24.20;99.90
28010;DHT22;15334;49.494;8.410;2023-09-08T09:48:22;24.30;99.90
28010;DHT22;15334;49.494;8.410;2023-09-08T09:50:51;24.40;99.90
28010;DHT22;15334;49.494;8.410;2023-09-08T09:53:20;24.40;99.90
28010;DHT22;15334;49.494;8.410;2023-09-08T09:55:48;24.60;99.90
28010;DHT22;15334;49.494;8.410;2023-09-08T09:58:16;24.70;99.90
28010;DHT22;15334;49.494;8.410;2023-09-08T10:00:45;24.80;99.90
28010;DHT22;15334;49.494;8.410;2023-09-08T10:03:15;24.90;99.90
28010;DHT22;15334;49.494;8.410;2023-09-08T10:05:46;24.90;99.90
28010;DHT22;15334;49.494;8.410;2023-09-08T10:08:16;24.90;99.90
28010;DHT22;15334;49.494;8.410;2023-09-08T10:10:45;24.90;99.90
28010;DHT22;15334;49.494;8.410;2023-09-08T10:13:37;25.00;99.90
28010;DHT22;15334;49.494;8.410;2023-09-08T10:16:26;25.00;99.90
28010;DHT22;15334;49.494;8.410;2023-09-08T10:18:55;25.10;99.90
28010;DHT22;15334;49.494;8.410;2023-09-08T10:21:27;25.20;99.90
28010;DHT22;15334;49.494;8.410;2023-09-08T10:24:02;25.30;99.90
28010;DHT22;15334;49.494;8.410;2023-09-08T10:26:36;25.30;99.90
28010;DHT22;15334;49.494;8.410;2023-09-08T10:29:06;25.40;99.90
28010;DHT22;15334;49.494;8.410;2023-09-08T10:31:35;25.40;99.90
28010;DHT22;15334;49.494;8.410;2023-09-08T10:34:03;25.40;99.90
28010;DHT22;15334;49.494;8.410;2023-09-08T10:36:34;25.40;99.90
28010;DHT22;15334;49.494;8.410;2023-09-08T10:39:47;25.50;99.90
28010;DHT22;15334;49.494;8.410;2023-09-08T10:42:33;25.60;99.90
28010;DHT22;15334;49.494;8.410;2023-09-08T10:45:02;25.60;99.90
28010;DHT22;15334;49.494;8.410;2023-09-08T10:47:55;25.70;99.90
28010;DHT22;15334;49.494;8.410;2023-09-08T10:50:29;25.80;99.90
28010;DHT22;15334;49.494;8.410;2023-09-08T10:53:07;25.80;99.90
28010;DHT22;15334;49.494;8.410;2023-09-08T10:55:40;25.90;99.90
28010;DHT22;15334;49.494;8.410;2023-09-08T10:58:10;25.90;99.90
28010;DHT22;15334;49.494;8.410;2023-09-08T11:00:45;26.00;99.90
28010;DHT22;15334;49.494;8.410;2023-09-08T11:03:14;26.00;99.90
28010;DHT22;15334;49.494;8.410;2023-09-08T11:05:42;26.00;99.90
28010;DHT22;15334;49.494;8.410;2023-09-08T11:08:12;26.20;99.90
28010;DHT22;15334;49.494;8.410;2023-09-08T11:10:41;26.30;99.90
28010;DHT22;15334;49.494;8.410;2023-09-08T11:13:10;26.30;99.90
28010;DHT22;15334;49.494;8.410;2023-09-08T11:15:38;26.30;99.90
28010;DHT22;15334;49.494;8.410;2023-09-08T11:18:06;26.40;99.90
28010;DHT22;15334;49.494;8.410;2023-09-08T11:20:34;26.50;99.90
28010;DHT22;15334;49.494;8.410;2023-09-08T11:23:03;26.60;99.90
28010;DHT22;15334;49.494;8.410;2023-09-08T11:25:34;26.70;99.90
28010;DHT22;15334;49.494;8.410;2023-09-08T11:28:02;26.80;99.90
28010;DHT22;15334;49.494;8.410;2023-09-08T11:30:30;27.00;99.90
28010;DHT22;15334;49.494;8.410;2023-09-08T11:32:58;27.00;99.90
28010;DHT22;15334;49.494;8.410;2023-09-08T11:35:27;27.20;99.90
28010;DHT22;15334;49.494;8.410;2023-09-08T11:37:59;27.50;99.90
28010;DHT22;15334;49.494;8.410;2023-09-08T11:40:30;27.70;99.90
28010;DHT22;15334;49.494;8.410;2023-09-08T11:43:00;27.90;99.90
28010;DHT22;15334;49.494;8.410;2023-09-08T11:45:30;28.00;99.90
28010;DHT22;15334;49.494;8.410;2023-09-08T11:47:58;28.00;99.90
28010;DHT22;15334;49.494;8.410;2023-09-08T11:50:26;28.00;99.90
28010;DHT22;15334;49.494;8.410;2023-09-08T11:52:54;28.10;99.90
28010;DHT22;15334;49.494;8.410;2023-09-08T11:55:24;28.20;99.90
28010;DHT22;15334;49.494;8.410;2023-09-08T11:57:53;28.30;99.90
28010;DHT22;15334;49.494;8.410;2023-09-08T12:00:25;28.60;99.90
28010;DHT22;15334;49.494;8.410;2023-09-08T12:02:54;28.80;99.90
28010;DHT22;15334;49.494;8.410;2023-09-08T12:05:23;29.00;99.90
28010;DHT22;15334;49.494;8.410;2023-09-08T12:07:53;29.10;99.90
28010;DHT22;15334;49.494;8.410;2023-09-08T12:10:21;29.10;99.90
28010;DHT22;15334;49.494;8.410;2023-09-08T12:12:51;29.10;99.90
28010;DHT22;15334;49.494;8.410;2023-09-08T12:15:32;29.10;99.90
28010;DHT22;15334;49.494;8.410;2023-09-08T12:18:00;29.00;99.90
28010;DHT22;15334;49.494;8.410;2023-09-08T12:20:29;28.90;99.90
28010;DHT22;15334;49.494;8.410;2023-09-08T12:22:58;29.00;99.90
28010;DHT22;15334;49.494;8.410;2023-09-08T12:25:27;29.20;99.90
28010;DHT22;15334;49.494;8.410;2023-09-08T12:27:58;29.50;99.90
28010;DHT22;15334;49.494;8.410;2023-09-08T12:30:28;29.80;99.90
28010;DHT22;15334;49.494;8.410;2023-09-08T12:33:01;29.80;99.90
28010;DHT22;15334;49.494;8.410;2023-09-08T12:35:30;30.00;99.90
28010;DHT22;15334;49.494;8.410;2023-09-08T12:37:59;30.10;99.90
28010;DHT22;15334;49.494;8.410;2023-09-08T12:40:29;30.50;99.90
28010;DHT22;15334;49.494;8.410;2023-09-08T12:42:57;30.90;99.80
28010;DHT22;15334;49.494;8.410;2023-09-08T12:45:43;31.50;98.50
28010;DHT22;15334;49.494;8.410;2023-09-08T12:48:14;32.50;99.10
28010;DHT22;15334;49.494;8.410;2023-09-08T12:50:42;33.40;96.30
28010;DHT22;15334;49.494;8.410;2023-09-08T12:53:10;33.50;95.90
28010;DHT22;15334;49.494;8.410;2023-09-08T12:55:38;33.90;95.40
28010;DHT22;15334;49.494;8.410;2023-09-08T12:58:06;34.80;95.10
28010;DHT22;15334;49.494;8.410;2023-09-08T13:00:34;36.00;93.40
28010;DHT22;15334;49.494;8.410;2023-09-08T13:03:03;37.10;99.90
28010;DHT22;15334;49.494;8.410;2023-09-08T13:05:32;37.20;86.40
28010;DHT22;15334;49.494;8.410;2023-09-08T13:08:01;37.60;86.30
28010;DHT22;15334;49.494;8.410;2023-09-08T13:10:29;38.60;81.10
28010;DHT22;15334;49.494;8.410;2023-09-08T13:12:56;39.30;80.80
28010;DHT22;15334;49.494;8.410;2023-09-08T13:15:24;39.00;75.90
28010;DHT22;15334;49.494;8.410;2023-09-08T13:17:52;38.70;74.70
28010;DHT22;15334;49.494;8.410;2023-09-08T13:20:20;38.40;74.80
28010;DHT22;15334;49.494;8.410;2023-09-08T13:22:49;38.50;73.70
28010;DHT22;15334;49.494;8.410;2023-09-08T13:25:17;38.50;72.90
28010;DHT22;15334;49.494;8.410;2023-09-08T13:27:45;38.80;75.30
28010;DHT22;15334;49.494;8.410;2023-09-08T13:30:15;38.70;72.80
28010;DHT22;15334;49.494;8.410;2023-09-08T13:32:44;37.90;73.80
28010;DHT22;15334;49.494;8.410;2023-09-08T13:35:12;37.10;74.70
28010;DHT22;15334;49.494;8.410;2023-09-08T13:37:40;35.90;76.30
28010;DHT22;15334;49.494;8.410;2023-09-08T13:40:11;34.80;79.40
28010;DHT22;15334;49.494;8.410;2023-09-08T13:42:40;33.80;81.80
28010;DHT22;15334;49.494;8.410;2023-09-08T13:45:08;32.90;82.40
28010;DHT22;15334;49.494;8.410;2023-09-08T13:47:36;32.40;84.10
28010;DHT22;15334;49.494;8.410;2023-09-08T13:50:07;31.90;85.50
28010;DHT22;15334;49.494;8.410;2023-09-08T13:52:36;31.50;85.10
28010;DHT22;15334;49.494;8.410;2023-09-08T13:55:11;31.20;90.20
28010;DHT22;15334;49.494;8.410;2023-09-08T13:57:58;30.90;89.00
28010;DHT22;15334;49.494;8.410;2023-09-08T14:00:28;30.70;88.40
28010;DHT22;15334;49.494;8.410;2023-09-08T14:02:58;30.50;92.10
28010;DHT22;15334;49.494;8.410;2023-09-08T14:05:32;30.40;93.10
28010;DHT22;15334;49.494;8.410;2023-09-08T14:08:03;30.40;94.30
28010;DHT22;15334;49.494;8.410;2023-09-08T14:10:44;30.40;90.20
28010;DHT22;15334;49.494;8.410;2023-09-08T14:13:15;30.20;90.70
28010;DHT22;15334;49.494;8.410;2023-09-08T14:15:43;30.20;91.50
28010;DHT22;15334;49.494;8.410;2023-09-08T14:18:11;30.20;91.00
28010;DHT22;15334;49.494;8.410;2023-09-08T14:20:41;30.20;90.00
28010;DHT22;15334;49.494;8.410;2023-09-08T14:23:09;30.20;90.10
28010;DHT22;15334;49.494;8.410;2023-09-08T14:25:37;30.00;91.40
28010;DHT22;15334;49.494;8.410;2023-09-08T14:28:07;30.00;90.10
28010;DHT22;15334;49.494;8.410;2023-09-08T14:30:35;29.90;90.00
28010;DHT22;15334;49.494;8.410;2023-09-08T14:33:03;29.80;90.10
28010;DHT22;15334;49.494;8.410;2023-09-08T14:35:32;29.70;92.70
28010;DHT22;15334;49.494;8.410;2023-09-08T14:38:00;29.60;92.60
28010;DHT22;15334;49.494;8.410;2023-09-08T14:40:28;29.70;91.60
28010;DHT22;15334;49.494;8.410;2023-09-08T14:42:56;29.60;91.00
28010;DHT22;15334;49.494;8.410;2023-09-08T14:45:25;29.60;91.70
28010;DHT22;15334;49.494;8.410;2023-09-08T14:47:53;29.60;92.20
28010;DHT22;15334;49.494;8.410;2023-09-08T14:50:25;29.60;91.70
28010;DHT22;15334;49.494;8.410;2023-09-08T14:52:53;29.50;93.50
28010;DHT22;15334;49.494;8.410;2023-09-08T14:55:21;29.50;94.20
28010;DHT22;15334;49.494;8.410;2023-09-08T14:57:48;29.50;91.70
28010;DHT22;15334;49.494;8.410;2023-09-08T15:00:17;29.60;94.40
28010;DHT22;15334;49.494;8.410;2023-09-08T15:02:46;29.60;92.10
28010;DHT22;15334;49.494;8.410;2023-09-08T15:05:14;29.60;93.50
28010;DHT22;15334;49.494;8.410;2023-09-08T15:07:42;29.60;91.30
28010;DHT22;15334;49.494;8.410;2023-09-08T15:10:10;29.60;90.80
28010;DHT22;15334;49.494;8.410;2023-09-08T15:12:38;29.60;93.00
28010;DHT22;15334;49.494;8.410;2023-09-08T15:15:07;29.60;92.80
28010;DHT22;15334;49.494;8.410;2023-09-08T15:17:35;29.50;92.20
28010;DHT22;15334;49.494;8.410;2023-09-08T15:20:06;29.50;92.10
28010;DHT22;15334;49.494;8.410;2023-09-08T15:22:35;29.50;91.10
28010;DHT22;15334;49.494;8.410;2023-09-08T15:25:03;29.60;91.10
28010;DHT22;15334;49.494;8.410;2023-09-08T15:27:31;29.60;91.70
28010;DHT22;15334;49.494;8.410;2023-09-08T15:29:59;29.60;91.80
28010;DHT22;15334;49.494;8.410;2023-09-08T15:32:27;29.70;91.70
28010;DHT22;15334;49.494;8.410;2023-09-08T15:34:55;29.60;90.70
28010;DHT22;15334;49.494;8.410;2023-09-08T15:37:24;29.60;90.90
28010;DHT22;15334;49.494;8.410;2023-09-08T15:39:52;29.60;91.20
28010;DHT22;15334;49.494;8.410;2023-09-08T15:42:20;29.50;91.10
28010;DHT22;15334;49.494;8.410;2023-09-08T15:44:48;29.40;90.70